Latest Weather Observations for Holsworthy (Defence)

IDN60801

Issued at 7:13 pm EDT Wednesday 25 November 2020 (issued every 10 minutes, with the page automatically refreshed every 10 minutes)

About weather observations | Map of weather stations | Latest weather observations for NSW | Other Formats
Station Details ID: 068263 Name: HOLSWORTHY DEFENCE AWS Lat: -34.08 Lon: 150.90 Height: 165.0 m
Data from the previous 72 hours. | See also: Recent months at Holsworthy (Defence)
Date/Time
EDT
Temp
°C
App
Temp
°C
Dew
Point
°C
Rel
Hum
%
Delta-T
°C
Wind Press
QNH
hPa
Press
MSL
hPa
Rain since
9am
mm
Dir  Spd
km/h
Gust
km/h
Spd
kts
Gust
kts
25/07:00pm 21.0 20.5 13.7 63 4.2 ENE 9 15 5 8 - - 0.0
25/06:30pm 21.7 20.9 13.9 61 4.6 NE 11 19 6 10 - - 0.0
25/06:00pm 22.6 22.3 14.4 60 4.9 ENE 9 19 5 10 - - 0.0
25/05:30pm 22.9 22.2 14.2 58 5.1 ENE 11 20 6 11 - - 0.0
25/05:00pm 23.3 22.6 14.3 57 5.3 NE 11 20 6 11 - - 0.0
25/04:30pm 23.5 23.3 14.8 58 5.2 NE 9 20 5 11 - - 0.0
25/04:00pm 23.9 24.1 14.6 56 5.6 ENE 7 15 4 8 - - 0.0
25/03:30pm 24.2 24.5 14.9 56 5.6 NE 7 13 4 7 - - 0.0
25/03:00pm 23.9 24.1 14.6 56 5.6 NE 7 15 4 8 - - 0.0
25/02:30pm 23.1 22.8 14.4 58 5.2 NE 9 19 5 10 - - 0.0
25/02:00pm 23.2 23.7 15.5 62 4.7 ENE 7 20 4 11 - - 0.0
25/01:30pm 21.9 22.1 14.8 64 4.2 ENE 7 13 4 7 - - 0.0
25/01:00pm 21.6 22.9 15.2 67 3.8 NE 2 4 1 2 - - 0.0
25/12:30pm 20.2 21.1 15.0 72 3.1 N 4 6 2 3 - - 0.0
25/12:00pm 20.6 21.0 14.7 69 3.5 E 6 9 3 5 - - 0.0
25/11:30am 21.3 21.6 14.5 65 4.0 NNE 6 9 3 5 - - 0.0
25/11:00am 20.9 21.3 14.8 68 3.6 N 6 11 3 6 - - 0.0
25/10:30am 20.6 20.8 14.3 67 3.7 N 6 9 3 5 - - 0.0
25/10:00am 20.3 20.7 14.7 70 3.3 NNW 6 9 3 5 - - 0.0
25/09:30am 19.4 19.6 14.2 72 3.0 N 6 9 3 5 - - 0.0
25/09:00am 18.9 19.6 14.4 75 2.6 WNW 4 9 2 5 - - 0.0
25/08:30am 18.5 19.2 14.6 78 2.3 NW 4 6 2 3 - - 0.0
25/08:00am 17.8 18.4 14.3 80 2.0 ESE 4 6 2 3 - - 0.0
25/07:30am 17.0 17.9 13.9 82 1.8 ESE 2 4 1 2 - - 0.0
25/07:00am 16.5 16.7 14.2 86 1.3 SE 6 7 3 4 - - 0.0
25/06:30am 16.4 17.2 14.8 90 0.9 ENE 4 9 2 5 - - 0.0
25/06:00am 16.4 17.1 14.6 89 1.0 NE 4 9 2 5 - - 0.0
25/05:30am 16.6 17.3 14.6 88 1.2 SSE 4 6 2 3 - - 0.0
25/05:00am 16.5 17.1 14.3 87 1.3 SSE 4 6 2 3 - - 0.0
25/04:30am 16.5 16.8 14.5 88 1.2 SSE 6 9 3 5 - - 0.0
25/04:00am 16.7 17.0 14.5 87 1.3 SSE 6 9 3 5 - - 0.0
25/03:30am 16.6 17.3 14.4 87 1.3 SSE 4 7 2 4 - - 0.0
25/03:00am 16.6 17.3 14.4 87 1.3 S 4 6 2 3 - - 0.0
25/02:30am 16.7 17.4 14.5 87 1.3 S 4 6 2 3 - - 0.0
25/02:00am 16.8 17.9 14.6 87 1.3 S 2 6 1 3 - - 0.0
25/01:30am 16.9 18.0 14.5 86 1.4 S 2 4 1 2 - - 0.0
25/01:00am 17.0 18.1 14.5 85 1.4 SSE 2 4 1 2 - - 0.0
25/12:30am 17.1 18.0 14.0 82 1.8 SSE 2 6 1 3 - - 0.0
25/12:00am 17.3 17.9 14.2 82 1.8 SE 4 9 2 5 - - 0.0
 
Date/Time
EDT
Temp
°C
App
Temp
°C
Dew
Point
°C
Rel
Hum
%
Delta-T
°C
Wind Press
QNH
hPa
Press
MSL
hPa
Rain since
9am
mm
Dir  Spd
km/h
Gust
km/h
Spd
kts
Gust
kts
24/11:30pm 17.4 18.3 14.1 81 1.9 SE 2 6 1 3 - - 0.0
24/11:00pm 17.4 17.6 14.1 81 1.9 SE 6 11 3 6 - - 0.0
24/10:30pm 17.6 17.8 14.3 81 1.9 SSE 6 9 3 5 - - 0.0
24/10:00pm 17.6 17.8 14.1 80 2.0 SE 6 9 3 5 - - 0.0
24/09:30pm 17.7 18.3 14.2 80 2.0 SSE 4 7 2 4 - - 0.0
24/09:00pm 17.6 17.8 14.1 80 2.0 SSE 6 7 3 4 - - 0.0
24/08:30pm 17.6 17.6 14.1 80 2.0 SSE 7 9 4 5 - - 0.0
24/08:00pm 17.6 17.5 13.9 79 2.1 SE 7 15 4 8 - - 0.0
24/07:30pm 17.6 17.4 13.5 77 2.3 SE 7 13 4 7 - - 0.0
24/07:00pm 18.1 17.0 13.0 72 2.9 SE 11 19 6 10 - - 0.0
24/06:30pm 18.2 16.7 13.1 72 2.9 SSE 13 24 7 13 - - 0.0
24/06:00pm 18.6 17.1 13.0 70 3.2 SSE 13 22 7 12 - - 0.0
24/05:30pm 19.6 18.9 13.1 66 3.7 SSE 9 20 5 11 - - 0.0
24/05:00pm 20.2 18.2 12.7 62 4.3 SE 15 30 8 16 - - 0.0
24/04:30pm 21.1 19.7 13.3 61 4.5 SE 13 26 7 14 - - 0.0
24/04:00pm 20.7 18.6 12.4 59 4.7 SSE 15 35 8 19 - - 0.0
24/03:30pm 21.5 19.5 12.6 57 5.1 SE 15 26 8 14 - - 0.0
24/03:00pm 20.8 17.6 11.4 55 5.2 SE 19 32 10 17 - - 0.0
24/02:30pm 21.4 18.8 12.0 55 5.3 SE 17 33 9 18 - - 0.0
24/02:00pm 22.1 19.9 12.1 53 5.7 SE 15 26 8 14 - - 0.0
24/01:30pm 21.4 19.3 12.3 56 5.2 SE 15 30 8 16 - - 0.0
24/01:00pm 21.0 19.4 12.9 60 4.6 SSE 13 24 7 13 - - 0.0
24/12:30pm 21.2 19.1 11.2 53 5.6 S 13 24 7 13 - - 0.0
24/12:00pm 21.1 19.4 12.3 57 5.0 SSE 13 20 7 11 - - 0.0
24/11:30am 20.4 18.7 12.4 60 4.5 SSE 13 24 7 13 - - 0.0
24/11:00am 20.1 17.9 12.1 60 4.5 SSE 15 26 8 14 - - 0.0
24/10:30am 19.9 17.4 12.2 61 4.3 SSE 17 26 9 14 - - 0.0
24/10:00am 19.2 18.1 13.2 68 3.4 S 11 24 6 13 - - 0.0
24/09:30am 18.3 17.4 13.6 74 2.7 SSE 11 19 6 10 - - 0.0
24/09:00am 18.3 16.9 13.4 73 2.8 SSE 13 24 7 13 - - 0.6
24/08:30am 17.6 17.0 13.5 77 2.3 SSE 9 20 5 11 - - 0.6
24/08:00am 17.8 17.7 13.9 78 2.2 S 7 11 4 6 - - 0.6
24/07:30am 17.3 17.8 14.0 81 1.9 S 4 9 2 5 - - 0.6
24/07:00am 17.0 17.6 14.3 84 1.6 SW 4 6 2 3 - - 0.6
24/06:30am 15.5 16.7 13.9 90 0.9 CALM 0 0 0 0 - - 0.6
24/06:00am 15.6 15.6 13.6 88 1.1 SSE 6 7 3 4 - - 0.6
24/05:30am 15.6 15.3 13.4 87 1.2 S 7 11 4 6 - - 0.6
24/05:00am 15.7 14.7 13.4 86 1.3 SSE 11 22 6 12 - - 0.6
24/04:30am 15.9 14.9 13.4 85 1.4 SE 11 19 6 10 - - 0.6
24/04:00am 16.2 15.5 13.3 83 1.6 SE 9 15 5 8 - - 0.6
24/03:30am 16.1 15.8 13.4 84 1.5 SSE 7 11 4 6 - - 0.6
24/03:00am 16.3 16.1 13.6 84 1.5 SSE 7 13 4 7 - - 0.6
24/02:30am 16.4 15.9 13.7 84 1.5 SSE 9 13 5 7 - - 0.6
24/02:00am 16.6 16.1 13.9 84 1.5 SSE 9 15 5 8 - - 0.6
24/01:30am 16.3 16.3 14.1 87 1.3 SSE 7 15 4 8 - - 0.6
24/01:00am 16.5 17.1 14.3 87 1.3 SSE 4 6 2 3 - - 0.6
24/12:30am 17.1 17.4 14.4 84 1.6 SSE 6 9 3 5 - - 0.6
24/12:00am 17.4 17.4 14.3 82 1.8 SSE 7 13 4 7 - - 0.6
 
Date/Time
EDT
Temp
°C
App
Temp
°C
Dew
Point
°C
Rel
Hum
%
Delta-T
°C
Wind Press
QNH
hPa
Press
MSL
hPa
Rain since
9am
mm
Dir  Spd
km/h
Gust
km/h
Spd
kts
Gust
kts
23/11:30pm 17.6 17.0 14.5 82 1.8 SSE 11 24 6 13 - - 0.6
23/11:00pm 17.9 16.9 14.6 81 1.9 SSE 13 24 7 13 - - 0.6
23/10:30pm 18.1 16.9 15.0 82 1.8 SSE 15 28 8 15 - - 0.6
23/10:00pm 18.2 16.9 14.9 81 1.9 SSE 15 28 8 15 - - 0.6
23/09:30pm 18.9 17.2 13.5 71 3.1 SSE 15 28 8 15 - - 0.6
23/09:00pm 19.1 18.3 14.1 73 2.9 SSE 11 22 6 12 - - 0.6
23/08:30pm 20.0 20.4 15.2 74 2.8 S 7 11 4 6 - - 0.6
23/08:00pm 21.1 21.2 15.4 70 3.4 S 9 19 5 10 - - 0.6
23/07:30pm 21.3 21.5 15.8 71 3.3 S 9 15 5 8 - - 0.6
23/07:00pm 20.4 21.8 16.4 78 2.4 SW 4 7 2 4 - - 0.6
23/06:30pm 20.3 21.3 16.3 78 2.4 WSW 6 7 3 4 - - 0.6
23/06:00pm 20.7 21.5 15.9 74 2.9 W 6 9 3 5 - - 0.6
23/05:30pm 21.0 21.3 15.1 69 3.5 WSW 7 13 4 7 - - 0.6
23/05:00pm 21.9 21.0 13.8 60 4.7 SW 11 20 6 11 - - 0.6
23/04:30pm 22.1 19.5 13.2 57 5.2 SW 19 37 10 20 - - 0.6
23/04:00pm 25.3 26.6 17.0 60 5.2 WNW 6 9 3 5 - - 0.6
23/03:30pm 23.8 25.4 17.8 69 3.8 NW 6 11 3 6 - - 0.6
23/03:00pm 22.8 24.0 16.8 69 3.7 NNW 6 9 3 5 - - 0.6
23/02:30pm 22.5 24.1 17.8 75 2.9 NNW 6 7 3 4 - - 0.6
23/02:00pm 22.2 23.8 18.2 78 2.5 NNW 7 11 4 6 - - 0.6
23/01:30pm 21.5 22.2 18.9 85 1.6 N 13 22 7 12 - - 0.6
23/01:00pm 22.4 23.6 19.9 86 1.6 N 13 26 7 14 - - 0.2
23/12:30pm 23.1 25.7 20.4 85 1.8 N 7 15 4 8 - - 0.2
23/12:00pm 23.5 25.8 19.8 80 2.4 N 7 11 4 6 - - 0.0
23/11:30am 23.6 26.0 19.7 79 2.5 NW 6 9 3 5 - - 0.0
23/11:00am 24.0 25.9 19.7 77 2.8 WNW 9 17 5 9 - - 0.0
23/10:30am 22.7 25.0 19.9 84 1.8 NW 7 13 4 7 - - 0.0
23/10:00am 23.1 24.9 19.5 80 2.3 NW 9 13 5 7 - - 0.0
23/09:30am 23.4 25.6 19.5 79 2.5 NNW 7 15 4 8 - - 0.0
23/09:00am 22.2 24.5 19.9 87 1.5 NW 7 13 4 7 - - 2.2
23/08:30am 20.5 22.7 19.2 92 0.8 WSW 6 7 3 4 - - 2.2
23/08:00am 20.4 23.2 19.7 96 0.4 W 4 6 2 3 - - 2.2
23/07:30am 19.9 23.2 19.2 96 0.4 CALM 0 4 0 2 - - 2.2
23/07:00am 19.4 22.5 18.6 95 0.5 CALM 0 2 0 1 - - 2.2
23/06:30am 19.4 22.5 18.6 95 0.5 CALM 0 6 0 3 - - 2.0
23/06:00am 19.5 21.7 18.3 93 0.7 S 4 7 2 4 - - 1.4
23/05:30am 19.6 21.2 18.3 92 0.8 S 7 17 4 9 - - 1.2
23/05:00am 19.8 20.7 18.3 91 0.9 SW 11 19 6 10 - - 1.0
23/04:30am 20.6 20.9 18.0 85 1.6 SW 13 24 7 13 - - 0.0
23/04:00am 20.8 20.8 18.0 84 1.7 SW 15 28 8 15 - - 0.0
23/03:30am 19.6 20.5 18.4 93 0.7 SW 11 28 6 15 - - 0.0
23/03:00am 19.4 21.9 18.2 93 0.7 SSE 2 2 1 1 - - 0.0
23/02:30am 19.3 21.0 18.1 93 0.7 SSE 6 6 3 3 - - 0.0
23/02:00am 19.4 21.2 18.2 93 0.7 SSE 6 7 3 4 - - 0.0
23/01:30am 19.9 22.7 18.9 94 0.6 SSE 2 6 1 3 - - 0.0
23/01:00am 19.7 22.4 18.7 94 0.6 SSE 2 4 1 2 - - 0.0
23/12:30am 19.9 21.8 18.6 92 0.8 SSE 6 7 3 4 - - 0.0
23/12:00am 20.2 22.9 18.7 91 0.9 SSE 2 4 1 2 - - 0.0
 
Date/Time
EDT
Temp
°C
App
Temp
°C
Dew
Point
°C
Rel
Hum
%
Delta-T
°C
Wind Press
QNH
hPa
Press
MSL
hPa
Rain since
9am
mm
Dir  Spd
km/h
Gust
km/h
Spd
kts
Gust
kts
22/11:30pm 20.5 23.2 18.6 89 1.2 SSE 2 4 1 2 - - 0.0
22/11:00pm 20.9 23.3 18.8 88 1.3 SSE 4 6 2 3 - - 0.0
22/10:30pm 21.3 24.6 19.0 87 1.5 CALM 0 0 0 0 - - 0.0
22/10:00pm 21.6 24.9 19.0 85 1.7 CALM 0 4 0 2 - - 0.0
22/09:30pm 22.2 25.6 19.4 84 1.8 CALM 0 0 0 0 - - 0.0
22/09:00pm 23.0 25.2 19.2 79 2.4 NNW 6 9 3 5 - - 0.0
22/08:30pm 23.7 27.2 19.6 78 2.6 CALM 0 0 0 0 - - 0.0
22/08:00pm 25.1 28.3 19.7 72 3.5 NNE 2 4 1 2 - - 0.0
22/07:30pm 26.0 29.3 19.9 69 4.0 NE 2 4 1 2 - - 0.0

Other formats

Comma delimited format used in spreadsheet applications
http://www.bom.gov.au/fwo/IDN60801/IDN60801.95684.axf

JavaScript Object Notation format (JSON) in row-major order
http://www.bom.gov.au/fwo/IDN60801/IDN60801.95684.json

Data quality

Most of these data are generated automatically and are frequently updated. Quality checks on data are not normally performed. It is possible for incorrect values to appear. Refer to information at About Latest Weather Observations and please check the disclaimer before using these data.